Nadi International Airport
NFFN : now visible

Airfield :











YOU CAN JOIN US ON...

 
LOGIN :

Register | Disclaimer

   EN    FR    IT 

 









Legend :    VFR   Marginal VFR   IFR   Intensive IFR   Very Intensive IFR
Visi :
Ceiling :
>= 8 km
>= 3000ft
5 to 8 km
1000 to 3000 ft
1500m to 5 km
500 to 1000 ft
800 to 1500m
200 to 500 ft
< 800m
< 200 ft
Symbols :   Thunderstorms  Fog  Heavy snow  Heavy precipitations  Wind > 20 kt






- Airport Elevation : 59 ft
- IATA code : NAN


NFFN - Nadi International

CURRENT METAR :
  • 191300Z VRB02KT 9999 FEW028 24/23 Q1013 NOSIG

EXPIRED METARs :
  • 191200Z 10004KT 9999 FEW028 24/23 Q1014 NOSIG
  • 191100Z 12003KT 9999 FEW028 25/24 Q1014 NOSIG

TAF TAF NFFN
Valid from the 19 at 12:00 until the 20 at 12:00 UTC


191119Z 1912/2012 10005KT 9999 SCT026
BECMG 1922/1924 30010KT
PROB40
TEMPO 2002/2006 5000 TSRA BKN015 FEW018CB
BECMG 2004/2006 08005KT
PROB30
TEMPO 2006/2009 5000 TSRA BKN015 FEW018CB
NFFF FIR / Oceania



MET'MAP, your aeronautical weather chart ! - Copyright ORBIFLY December 2007 - Disclaimer

ORBIFLY MET'MAP TEAM :

Programming & Development : Alexandra Zaïnal
Concept & original design : Baudouin d'Aumeries
Assistance for programming : Marc-Olivier Méhu
Technical & hardware support : Manuel Goepfert

Contact : metmap@orbifly.com




SOURCES & CREDITS :

   NOAA       Earth
Advisory